createdAt,value
2023-01-20T00:02:54.644Z,1.01
2023-01-20T00:07:57.516Z,1.00
2023-01-20T00:13:01.668Z,0.84
2023-01-20T00:18:04.576Z,0.81
2023-01-20T00:23:07.349Z,0.97
2023-01-20T00:28:11.474Z,0.79
2023-01-20T00:33:14.419Z,0.88
2023-01-20T00:38:17.679Z,0.84
2023-01-20T00:43:21.799Z,0.84
2023-01-20T00:48:24.641Z,0.83
2023-01-20T00:53:27.681Z,0.83
2023-01-20T00:58:31.781Z,0.68
2023-01-20T01:03:34.675Z,0.85
2023-01-20T01:08:37.643Z,0.78
2023-01-20T01:13:43.393Z,0.79
2023-01-20T01:18:46.115Z,0.79
2023-01-20T01:23:48.888Z,0.77
2023-01-20T01:28:53.435Z,0.75
2023-01-20T01:33:56.154Z,0.67
2023-01-20T01:38:59.377Z,0.78
2023-01-20T01:44:10.065Z,0.64
2023-01-20T01:49:18.031Z,0.70
2023-01-20T01:54:24.338Z,0.69
2023-01-20T01:59:29.095Z,0.94
2023-01-20T02:04:33.843Z,0.78
2023-01-20T02:09:36.983Z,0.62
2023-01-20T02:14:45.084Z,0.69
2023-01-20T02:20:32.020Z,0.69
2023-01-20T02:25:57.610Z,0.84
2023-01-20T02:31:37.450Z,0.89
2023-01-20T02:36:46.249Z,0.92
2023-01-20T02:41:56.939Z,0.92
2023-01-20T02:47:04.035Z,1.07
2023-01-20T02:52:15.838Z,0.99
2023-01-20T02:57:24.969Z,1.28
2023-01-20T03:02:30.467Z,1.07
2023-01-20T03:07:37.251Z,1.21
2023-01-20T03:12:46.698Z,0.99
2023-01-20T03:17:49.493Z,0.98
2023-01-20T03:22:53.634Z,0.89
2023-01-20T03:27:56.367Z,0.67
2023-01-20T03:32:59.989Z,0.81
2023-01-20T03:38:04.195Z,0.77
2023-01-20T03:43:14.381Z,1.03
2023-01-20T03:48:24.855Z,1.18
2023-01-20T03:53:35.140Z,1.00
2023-01-20T03:58:41.737Z,1.34
2023-01-20T04:03:47.360Z,1.09
2023-01-20T04:08:56.868Z,1.45
2023-01-20T04:13:59.817Z,1.28
2023-01-20T04:19:02.539Z,1.25
2023-01-20T04:24:15.725Z,1.22
2023-01-20T04:29:18.444Z,1.34
2023-01-20T04:34:21.267Z,1.24
2023-01-20T04:39:25.464Z,1.28
2023-01-20T04:44:28.217Z,1.61
2023-01-20T04:49:30.952Z,1.25
2023-01-20T04:54:35.366Z,1.36
2023-01-20T04:59:38.207Z,1.13
2023-01-20T05:04:40.998Z,1.27
2023-01-20T05:09:45.228Z,1.26
2023-01-20T05:14:48.056Z,1.23
2023-01-20T05:19:50.808Z,1.13
2023-01-20T05:24:54.875Z,1.42
2023-01-20T05:29:57.778Z,1.39
2023-01-20T05:35:00.540Z,1.35
2023-01-20T05:40:05.013Z,1.69
2023-01-20T05:45:09.249Z,1.29
2023-01-20T05:50:13.931Z,1.46
2023-01-20T05:55:18.101Z,1.44
2023-01-20T06:00:21.660Z,1.67
2023-01-20T06:05:24.426Z,1.66
2023-01-20T06:10:28.838Z,1.54
2023-01-20T06:15:32.055Z,1.67
2023-01-20T06:20:34.758Z,1.39
2023-01-20T06:25:38.909Z,1.51
2023-01-20T06:30:43.158Z,1.56
2023-01-20T06:35:45.969Z,2.09
2023-01-20T06:40:50.149Z,2.08
2023-01-20T06:45:52.996Z,1.78
2023-01-20T06:51:01.124Z,1.56
2023-01-20T06:56:05.898Z,1.71
2023-01-20T07:01:10.088Z,1.85
2023-01-20T07:06:17.947Z,2.02
2023-01-20T07:11:22.121Z,2.13
2023-01-20T07:16:24.871Z,2.17
2023-01-20T07:21:27.832Z,1.79
2023-01-20T07:26:32.363Z,1.84
2023-01-20T07:31:35.276Z,1.83
2023-01-20T07:36:38.081Z,1.89
2023-01-20T07:41:43.770Z,2.25
2023-01-20T07:46:46.481Z,2.04
2023-01-20T07:51:49.543Z,2.21
2023-01-20T07:56:53.620Z,2.03
2023-01-20T08:01:56.867Z,2.39
2023-01-20T08:06:59.673Z,2.58
2023-01-20T08:12:03.811Z,2.48
2023-01-20T08:17:06.660Z,2.65
2023-01-20T08:22:09.415Z,2.83
2023-01-20T08:27:13.516Z,2.72
2023-01-20T08:32:16.236Z,2.51
2023-01-20T08:37:19.124Z,2.89
2023-01-20T08:42:23.172Z,3.07
2023-01-20T08:47:25.963Z,2.92
2023-01-20T08:52:28.721Z,2.78
2023-01-20T08:57:32.929Z,3.26
2023-01-20T09:02:35.778Z,3.43
2023-01-20T09:07:38.613Z,3.40
2023-01-20T09:12:42.993Z,4.00
2023-01-20T09:17:45.725Z,3.76
2023-01-20T09:22:48.676Z,4.08
2023-01-20T09:27:52.757Z,3.80
2023-01-20T09:32:57.670Z,3.82
2023-01-20T09:38:14.323Z,4.38
2023-01-20T09:43:49.190Z,4.40
2023-01-20T09:49:18.926Z,4.78
2023-01-20T09:54:26.530Z,5.13
2023-01-20T09:59:37.758Z,4.12
2023-01-20T10:04:44.965Z,5.07
2023-01-20T10:09:53.927Z,4.83
2023-01-20T10:15:08.567Z,5.21
2023-01-20T10:20:15.848Z,5.12
2023-01-20T10:25:23.570Z,5.64
2023-01-20T10:30:32.540Z,5.56
2023-01-20T10:35:38.368Z,5.10
2023-01-20T10:40:45.725Z,4.70
2023-01-20T10:46:07.838Z,4.84
2023-01-20T10:51:20.833Z,4.34
2023-01-20T10:56:37.895Z,4.51
2023-01-20T11:01:42.973Z,4.69
2023-01-20T11:06:47.241Z,4.79
2023-01-20T11:11:49.960Z,4.74
2023-01-20T11:17:01.304Z,4.86
2023-01-20T11:22:12.146Z,5.35
2023-01-20T11:27:19.414Z,5.22
2023-01-20T11:32:29.793Z,5.14
2023-01-20T11:37:41.487Z,4.91
2023-01-20T11:42:46.151Z,4.32
2023-01-20T11:48:04.475Z,4.53
2023-01-20T11:53:24.702Z,4.64
2023-01-20T11:58:29.291Z,4.65
2023-01-20T12:04:11.545Z,4.41
2023-01-20T12:09:17.431Z,4.48
2023-01-20T12:14:25.345Z,4.17
2023-01-20T12:19:37.939Z,4.68
2023-01-20T12:25:10.850Z,4.78
2023-01-20T12:30:33.121Z,4.99
2023-01-20T12:35:45.482Z,4.66
2023-01-20T12:40:52.223Z,4.38
2023-01-20T12:46:07.180Z,4.32
2023-01-20T12:51:29.612Z,5.03
2023-01-20T12:56:41.120Z,5.16
2023-01-20T13:01:51.556Z,5.13
2023-01-20T13:07:10.506Z,5.13
2023-01-20T13:12:33.929Z,5.10
2023-01-20T13:17:42.897Z,4.58
2023-01-20T13:22:47.198Z,4.51
2023-01-20T13:27:54.346Z,4.24
2023-01-20T13:33:05.919Z,4.25
2023-01-20T13:38:22.080Z,4.22
2023-01-20T13:43:37.088Z,3.97
2023-01-20T13:49:05.143Z,4.02
2023-01-20T13:54:42.234Z,3.82
2023-01-20T13:59:44.927Z,4.16
2023-01-20T14:04:48.074Z,4.54
2023-01-20T14:09:56.361Z,4.48
2023-01-20T14:14:59.110Z,4.27
2023-01-20T14:20:02.366Z,4.37
2023-01-20T14:25:21.655Z,4.44
2023-01-20T14:30:26.473Z,4.76
2023-01-20T14:35:32.242Z,4.74
2023-01-20T14:40:36.705Z,4.67
2023-01-20T14:45:43.380Z,4.39
2023-01-20T14:50:50.849Z,4.28
2023-01-20T14:56:01.466Z,4.57
2023-01-20T15:01:06.054Z,4.09
2023-01-20T15:06:20.946Z,4.28
2023-01-20T15:11:28.381Z,4.34
2023-01-20T15:16:33.318Z,4.35
2023-01-20T15:21:36.714Z,4.21
2023-01-20T15:26:40.980Z,4.68
2023-01-20T15:31:43.913Z,3.95
2023-01-20T15:36:47.830Z,4.21
2023-01-20T15:41:54.763Z,4.12
2023-01-20T15:46:57.884Z,3.86
2023-01-20T15:52:00.656Z,4.01
2023-01-20T15:57:06.538Z,4.02
2023-01-20T16:02:18.252Z,3.82
2023-01-20T16:07:22.136Z,4.01
2023-01-20T16:12:26.242Z,3.79
2023-01-20T16:17:31.359Z,3.72
2023-01-20T16:22:34.077Z,3.75
2023-01-20T16:27:38.125Z,3.60
2023-01-20T16:32:40.910Z,3.85
2023-01-20T16:37:47.430Z,3.74
2023-01-20T16:42:51.499Z,3.65
2023-01-20T16:47:54.635Z,3.58
2023-01-20T16:52:57.750Z,3.73
2023-01-20T16:58:01.893Z,3.55
2023-01-20T17:03:04.759Z,3.76
2023-01-20T17:08:07.535Z,3.58
2023-01-20T17:13:11.678Z,3.38
2023-01-20T17:18:14.395Z,3.41
2023-01-20T17:23:17.169Z,3.41
2023-01-20T17:28:21.221Z,3.40
2023-01-20T17:33:23.957Z,3.15
2023-01-20T17:38:28.178Z,3.34
2023-01-20T17:43:37.094Z,3.15
2023-01-20T17:48:39.919Z,3.15
2023-01-20T17:53:43.387Z,3.05
2023-01-20T17:58:48.842Z,2.79
2023-01-20T18:03:53.327Z,3.11
2023-01-20T18:08:58.218Z,3.46
2023-01-20T18:14:03.930Z,3.54
2023-01-20T18:19:06.726Z,2.99
2023-01-20T18:24:12.643Z,3.07
2023-01-20T18:29:18.055Z,3.46
2023-01-20T18:34:21.985Z,3.34
2023-01-20T18:39:26.922Z,3.38
2023-01-20T18:44:31.043Z,3.20
2023-01-20T18:49:33.934Z,3.12
2023-01-20T18:54:38.460Z,3.48
2023-01-20T18:59:42.961Z,3.68
2023-01-20T19:04:45.978Z,3.32
2023-01-20T19:09:48.812Z,3.23
2023-01-20T19:14:54.727Z,3.29
2023-01-20T19:19:57.589Z,3.20
2023-01-20T19:25:00.374Z,3.08
2023-01-20T19:30:05.389Z,3.66
2023-01-20T19:35:09.230Z,3.72
2023-01-20T19:40:12.734Z,3.61
2023-01-20T19:45:17.229Z,3.80
2023-01-20T19:50:19.996Z,3.21
2023-01-20T19:55:22.811Z,3.28
2023-01-20T20:00:26.898Z,3.74
2023-01-20T20:05:29.882Z,3.80
2023-01-20T20:10:32.936Z,3.77
2023-01-20T20:15:37.162Z,3.57
2023-01-20T20:20:39.900Z,3.41
2023-01-20T20:25:49.743Z,3.31
2023-01-20T20:30:55.442Z,3.40
2023-01-20T20:35:58.329Z,3.08
2023-01-20T20:41:01.733Z,3.06
2023-01-20T20:46:09.205Z,3.21
2023-01-20T20:51:14.536Z,2.90
2023-01-20T20:56:17.910Z,3.16
2023-01-20T21:01:22.091Z,3.50
2023-01-20T21:06:24.949Z,3.05
2023-01-20T21:11:28.025Z,3.00
2023-01-20T21:16:32.376Z,3.07
2023-01-20T21:21:35.299Z,2.99
2023-01-20T21:26:38.210Z,3.11
2023-01-20T21:31:42.376Z,3.33
2023-01-20T21:36:45.145Z,3.15
2023-01-20T21:41:47.995Z,3.34
2023-01-20T21:46:52.157Z,3.45
2023-01-20T21:52:12.610Z,3.40
2023-01-20T21:57:15.720Z,3.38
2023-01-20T22:02:20.149Z,3.54
2023-01-20T22:07:24.408Z,3.27
2023-01-20T22:12:27.160Z,3.31
2023-01-20T22:17:32.475Z,3.20
2023-01-20T22:22:35.332Z,3.33
2023-01-20T22:27:38.182Z,3.08
2023-01-20T22:32:42.286Z,3.31
2023-01-20T22:37:45.314Z,3.56
2023-01-20T22:42:48.297Z,3.41
2023-01-20T22:47:52.602Z,3.21
2023-01-20T22:52:55.490Z,3.32
2023-01-20T22:57:59.902Z,3.65
2023-01-20T23:03:04.244Z,3.41
2023-01-20T23:08:06.989Z,3.44
2023-01-20T23:13:09.735Z,3.53
2023-01-20T23:18:13.855Z,3.51
2023-01-20T23:23:16.834Z,3.64
2023-01-20T23:28:19.707Z,3.41
2023-01-20T23:33:23.841Z,3.54
2023-01-20T23:38:26.604Z,3.48
2023-01-20T23:43:29.391Z,3.39
2023-01-20T23:48:34.679Z,3.55
2023-01-20T23:53:40.313Z,3.43
2023-01-20T23:58:43.346Z,3.35
